Time;durP1;ratioP1;P1;durP2;ratioP2;P2;SDS_P1;SDS_P2;PMS_P1;PMS_P2;Temp;Humidity;BMP_temperature;BMP_pressure;BME280_temperature;BME280_humidity;BME280_pressure;Samples;Min_cycle;Max_cycle;Signal;HPM_P1;HPM_P2
2023/10/27 00:00:10;;;;;;;;;;;;;;;15.90;65.14;98943.06;4213963;28;20011;-70
2023/10/27 00:02:12;;;;;;;;;;;;;;;15.90;65.14;98940.41;4214345;28;19924;-70
2023/10/27 00:04:13;;;;;;;;;;;;;;;15.88;65.27;98937.91;4214101;28;19997;-71
2023/10/27 00:06:15;;;;;;;;;;;;;;;15.88;64.97;98934.41;4196007;28;20397;-70
2023/10/27 00:08:17;;;;;;;;;;;;;;;15.87;64.97;98925.63;4214199;28;19924;-70
2023/10/27 00:10:18;;;;;;;;;;;;;;;15.87;65.09;98933.56;4213866;28;19924;-69
2023/10/27 00:12:20;;;;;;;;;;;;;;;15.86;65.03;98926.59;4213629;28;20413;-70
2023/10/27 00:14:21;;;;;;;;;;;;;;;15.87;65.32;98924.75;4213653;28;20138;-69
2023/10/27 00:16:23;;;;;;;;;;;;;;;15.87;65.41;98932.72;4214109;28;19940;-70
2023/10/27 00:18:24;;;;;;;;;;;;;;;15.86;65.37;98934.53;4213788;28;19924;-70
2023/10/27 00:20:26;;;;;;;;;;;;;;;15.86;65.39;98942.50;4213883;28;19928;-69
2023/10/27 00:22:28;;;;;;;;;;;;;;;15.86;65.05;98949.63;4213730;28;19976;-70
2023/10/27 00:24:30;;;;;;;;;;;;;;;15.85;65.12;98951.41;4213910;28;19928;-69
2023/10/27 00:26:31;;;;;;;;;;;;;;;15.85;65.34;98947.94;4213354;28;19970;-70
2023/10/27 00:28:33;;;;;;;;;;;;;;;15.84;65.29;98948.91;4213609;28;19932;-68
2023/10/27 00:30:34;;;;;;;;;;;;;;;15.84;65.41;98947.06;4213909;28;19928;-69
2023/10/27 00:32:36;;;;;;;;;;;;;;;15.84;65.54;98952.38;4213578;28;20040;-69
2023/10/27 00:34:38;;;;;;;;;;;;;;;15.83;65.39;98958.66;4213655;28;20010;-69
2023/10/27 00:36:40;;;;;;;;;;;;;;;15.83;65.27;98955.16;4195434;28;19924;-69
2023/10/27 00:38:41;;;;;;;;;;;;;;;15.83;65.53;98960.47;4213752;28;20389;-69
2023/10/27 00:40:43;;;;;;;;;;;;;;;15.83;65.48;98965.78;4213371;28;19925;-70
2023/10/27 00:42:44;;;;;;;;;;;;;;;15.83;65.72;98960.47;4213642;28;19928;-69
2023/10/27 00:44:46;;;;;;;;;;;;;;;15.83;65.27;98960.47;4212849;28;19924;-69
2023/10/27 00:46:47;;;;;;;;;;;;;;;15.83;65.45;98968.41;4213613;28;19924;-70
2023/10/27 00:48:49;;;;;;;;;;;;;;;15.83;65.49;98968.41;4213376;28;20003;-70
2023/10/27 00:50:51;;;;;;;;;;;;;;;15.81;65.33;98968.53;4213588;28;19948;-70
2023/10/27 00:52:53;;;;;;;;;;;;;;;15.81;65.58;98963.22;4212914;28;19931;-69
2023/10/27 00:54:54;;;;;;;;;;;;;;;15.81;65.35;98971.19;4212794;28;19969;-70
2023/10/27 00:56:57;;;;;;;;;;;;;;;15.80;65.26;98965.03;4213254;28;19931;-69
2023/10/27 00:58:59;;;;;;;;;;;;;;;15.80;65.43;98975.63;4195739;28;19924;-70
2023/10/27 01:01:01;;;;;;;;;;;;;;;15.79;65.37;98971.28;4213490;28;19924;-69
2023/10/27 01:03:04;;;;;;;;;;;;;;;15.80;65.38;98978.28;4213389;28;19924;-69
2023/10/27 01:05:06;;;;;;;;;;;;;;;15.80;65.29;98974.78;4213395;28;19924;-69
2023/10/27 01:07:08;;;;;;;;;;;;;;;15.80;65.45;98980.09;4213237;28;19966;-71
2023/10/27 01:09:09;;;;;;;;;;;;;;;15.79;65.37;98968.63;4213025;28;20022;-69
2023/10/27 01:11:11;;;;;;;;;;;;;;;15.79;65.27;98976.59;4213453;28;19924;-70
2023/10/27 01:13:12;;;;;;;;;;;;;;;15.79;65.33;98984.53;4195535;28;20276;-68
2023/10/27 01:15:14;;;;;;;;;;;;;;;15.78;65.34;98988.19;4213310;28;19928;-69
2023/10/27 01:17:16;;;;;;;;;;;;;;;15.78;65.16;98985.53;4213103;28;20304;-69
2023/10/27 01:19:18;;;;;;;;;;;;;;;15.78;65.38;98982.88;4213291;28;20595;-69
2023/10/27 01:21:20;;;;;;;;;;;;;;;15.78;65.34;98996.13;4213144;28;19925;-70
2023/10/27 01:23:21;;;;;;;;;;;;;;;15.78;65.47;98979.38;4213200;28;19928;-70
2023/10/27 01:25:23;;;;;;;;;;;;;;;15.77;65.23;98985.66;4213137;28;19962;-70
2023/10/27 01:27:24;;;;;;;;;;;;;;;15.77;65.12;98989.16;4195015;28;19932;-70
2023/10/27 01:29:28;;;;;;;;;;;;;;;15.77;65.10;98994.47;4213161;28;20385;-70
2023/10/27 01:31:30;;;;;;;;;;;;;;;15.78;65.38;98992.63;4195228;28;20004;-70
2023/10/27 01:33:32;;;;;;;;;;;;;;;15.77;65.26;98985.66;4213041;28;19924;-70
2023/10/27 01:35:35;;;;;;;;;;;;;;;15.76;65.45;98987.47;4213272;28;19968;-69
2023/10/27 01:37:37;;;;;;;;;;;;;;;15.77;65.38;98991.81;4213118;28;20003;-70
2023/10/27 01:39:38;;;;;;;;;;;;;;;15.75;65.39;98984.97;4212722;28;20354;-70
2023/10/27 01:41:40;;;;;;;;;;;;;;;15.75;65.36;98983.13;4213288;28;19924;-70
2023/10/27 01:43:42;;;;;;;;;;;;;;;15.75;65.39;98995.56;4213115;28;19932;-70
2023/10/27 01:45:43;;;;;;;;;;;;;;;15.75;65.16;98996.38;4213101;28;19930;-70
2023/10/27 01:47:45;;;;;;;;;;;;;;;15.75;65.24;99003.50;4212916;28;19928;-70
2023/10/27 01:49:46;;;;;;;;;;;;;;;15.75;65.70;99006.16;4213193;28;19928;-70
2023/10/27 01:51:48;;;;;;;;;;;;;;;15.75;65.60;99000.88;4213164;28;19966;-70
2023/10/27 01:53:49;;;;;;;;;;;;;;;15.74;65.71;99007.13;4212857;28;20346;-70
2023/10/27 01:55:51;;;;;;;;;;;;;;;15.74;65.32;99007.97;4212973;28;19924;-70
2023/10/27 01:57:53;;;;;;;;;;;;;;;15.74;65.59;99004.47;4213098;28;19924;-69
2023/10/27 01:59:55;;;;;;;;;;;;;;;15.73;65.52;99000.13;4212820;28;19931;-69
2023/10/27 02:01:56;;;;;;;;;;;;;;;15.73;65.56;99002.78;4212955;28;19943;-70
2023/10/27 02:03:58;;;;;;;;;;;;;;;15.73;65.61;99008.91;4212878;28;20377;-70
2023/10/27 02:05:59;;;;;;;;;;;;;;;15.72;65.33;99007.22;4215846;28;20041;-69
2023/10/27 02:08:02;;;;;;;;;;;;;;;15.73;65.28;99011.56;4215699;28;20011;-69
2023/10/27 02:10:04;;;;;;;;;;;;;;;15.72;65.24;99009.88;4215641;28;19924;-69
2023/10/27 02:12:07;;;;;;;;;;;;;;;15.72;65.60;99006.41;4216257;28;19928;-68
2023/10/27 02:14:09;;;;;;;;;;;;;;;15.71;65.17;99008.22;4215684;28;19959;-69
2023/10/27 02:16:10;;;;;;;;;;;;;;;15.71;65.28;99010.03;4215865;28;20412;-69
2023/10/27 02:18:12;;;;;;;;;;;;;;;15.70;65.57;99006.53;4215629;28;19924;-69
2023/10/27 02:20:13;;;;;;;;;;;;;;;15.71;65.34;99016.19;4215693;28;20319;-70
2023/10/27 02:22:15;;;;;;;;;;;;;;;15.70;65.34;99013.63;4197606;28;20356;-69
2023/10/27 02:24:17;;;;;;;;;;;;;;;15.69;65.56;99015.47;4215877;28;19977;-69
2023/10/27 02:26:19;;;;;;;;;;;;;;;15.69;65.62;99007.50;4197710;28;19936;-70
2023/10/27 02:28:20;;;;;;;;;;;;;;;15.68;65.49;99011.13;4215698;28;19959;-70
2023/10/27 02:30:22;;;;;;;;;;;;;;;15.67;65.44;99005.97;4215446;28;20007;-69
2023/10/27 02:32:24;;;;;;;;;;;;;;;15.68;65.48;99011.13;4215460;28;19928;-70
2023/10/27 02:34:25;;;;;;;;;;;;;;;15.67;65.50;99005.97;4215432;28;20035;-69
2023/10/27 02:36:27;;;;;;;;;;;;;;;15.65;65.49;99009.59;4214967;28;19924;-69
2023/10/27 02:38:29;;;;;;;;;;;;;;;15.66;65.14;99002.47;4215496;28;19989;-69
2023/10/27 02:40:30;;;;;;;;;;;;;;;15.65;65.18;99012.22;4215504;28;19924;-69
2023/10/27 02:42:32;;;;;;;;;;;;;;;15.64;65.30;99015.84;4197255;28;19925;-69
2023/10/27 02:44:34;;;;;;;;;;;;;;;15.64;65.18;99002.59;4215304;28;19974;-70
2023/10/27 02:46:36;;;;;;;;;;;;;;;15.65;65.44;99006.09;4215503;28;20033;-69
2023/10/27 02:48:37;;;;;;;;;;;;;;;15.64;65.46;99005.25;4215232;28;20392;-69
2023/10/27 02:50:39;;;;;;;;;;;;;;;15.64;65.32;99013.19;4215239;28;19928;-70
2023/10/27 02:52:41;;;;;;;;;;;;;;;15.64;65.34;99012.38;4215242;28;19978;-69
2023/10/27 02:54:43;;;;;;;;;;;;;;;15.63;65.20;99016.81;4197051;28;19932;-72
2023/10/27 02:56:44;;;;;;;;;;;;;;;15.64;65.42;99015.03;4215356;28;20011;-69
2023/10/27 02:58:46;;;;;;;;;;;;;;;15.62;65.26;99007.16;4215115;28;19928;-70
2023/10/27 03:00:47;;;;;;;;;;;;;;;15.62;65.07;99014.28;4215270;28;20478;-70
2023/10/27 03:02:49;;;;;;;;;;;;;;;15.62;65.33;99017.78;4197028;28;19989;-69
2023/10/27 03:04:51;;;;;;;;;;;;;;;15.62;65.20;99017.78;4214554;28;19959;-69
2023/10/27 03:06:53;;;;;;;;;;;;;;;15.61;64.97;99016.13;4215054;28;19924;-70
2023/10/27 03:08:55;;;;;;;;;;;;;;;15.61;65.27;99017.91;4214977;28;19925;-70
2023/10/27 03:10:56;;;;;;;;;;;;;;;15.60;65.03;99021.53;4214730;28;20015;-71
2023/10/27 03:12:58;;;;;;;;;;;;;;;15.61;65.07;99025.84;4215046;28;19924;-70
2023/10/27 03:14:59;;;;;;;;;;;;;;;15.60;65.00;99018.88;4214712;28;20325;-70
2023/10/27 03:17:02;;;;;;;;;;;;;;;15.61;65.21;99025.84;4213852;28;19983;-71
2023/10/27 03:19:04;;;;;;;;;;;;;;;15.59;65.28;99027.78;4214917;28;19924;-70
2023/10/27 03:21:06;;;;;;;;;;;;;;;15.59;65.29;99022.50;4214580;28;20336;-69
2023/10/27 03:23:09;;;;;;;;;;;;;;;15.59;65.14;99022.50;4214844;28;19924;-70
2023/10/27 03:25:10;;;;;;;;;;;;;;;15.58;64.93;99026.97;4214676;28;20309;-69
2023/10/27 03:27:12;;;;;;;;;;;;;;;15.58;65.18;99026.97;4214579;28;20005;-70
2023/10/27 03:29:13;;;;;;;;;;;;;;;15.57;65.29;99029.75;4214714;28;19980;-70
2023/10/27 03:31:15;;;;;;;;;;;;;;;15.57;65.13;99032.41;4214567;28;19924;-70
2023/10/27 03:33:17;;;;;;;;;;;;;;;15.57;64.91;99040.34;4214879;28;19928;-69
2023/10/27 03:35:19;;;;;;;;;;;;;;;15.58;65.36;99044.69;4214031;28;20118;-69
2023/10/27 03:37:21;;;;;;;;;;;;;;;15.57;65.34;99045.66;4214336;28;19924;-69
2023/10/27 03:39:22;;;;;;;;;;;;;;;15.55;64.84;99045.75;4214718;28;19970;-70
2023/10/27 03:41:24;;;;;;;;;;;;;;;15.56;65.08;99038.66;4214561;28;20023;-70
2023/10/27 03:43:25;;;;;;;;;;;;;;;15.56;65.00;99047.44;4214422;28;19978;-69
2023/10/27 03:45:27;;;;;;;;;;;;;;;15.54;65.27;99041.44;4214649;28;19928;-69
2023/10/27 03:47:29;;;;;;;;;;;;;;;15.54;65.22;99041.44;4214430;28;19924;-69
2023/10/27 03:49:32;;;;;;;;;;;;;;;15.55;64.78;99037.81;4213603;28;19924;-70
2023/10/27 03:51:34;;;;;;;;;;;;;;;15.54;65.27;99036.16;4214316;28;19924;-70
2023/10/27 03:53:35;;;;;;;;;;;;;;;15.53;65.15;99034.47;4214354;28;20313;-70
2023/10/27 03:55:37;;;;;;;;;;;;;;;15.54;65.27;99040.59;4214339;28;19967;-69
2023/10/27 03:57:39;;;;;;;;;;;;;;;15.53;65.15;99038.91;4196462;28;19928;-69
2023/10/27 03:59:41;;;;;;;;;;;;;;;15.52;65.15;99030.13;4214297;28;19946;-70
2023/10/27 04:01:43;;;;;;;;;;;;;;;15.53;64.90;99033.59;4214093;28;19924;-70
2023/10/27 04:03:44;;;;;;;;;;;;;;;15.53;65.14;99023.88;4213893;28;19924;-70
2023/10/27 04:05:46;;;;;;;;;;;;;;;15.52;65.08;99023.97;4214119;28;19955;-69
2023/10/27 04:07:47;;;;;;;;;;;;;;;15.52;65.19;99035.44;4214009;28;19971;-70
2023/10/27 04:09:50;;;;;;;;;;;;;;;15.52;65.19;99032.78;4214078;28;19924;-70
2023/10/27 04:11:51;;;;;;;;;;;;;;;15.53;64.99;99038.91;4195915;28;19924;-70
2023/10/27 04:13:53;;;;;;;;;;;;;;;15.52;65.12;99034.56;4214033;28;19928;-70
2023/10/27 04:15:55;;;;;;;;;;;;;;;15.52;64.92;99032.78;4213870;28;19924;-70
2023/10/27 04:17:56;;;;;;;;;;;;;;;15.51;64.94;99044.34;4213499;28;20341;-70
2023/10/27 04:19:58;;;;;;;;;;;;;;;15.51;65.15;99041.69;4196004;28;19951;-70
2023/10/27 04:22:00;;;;;;;;;;;;;;;15.51;64.86;99046.16;4213657;28;19924;-70
2023/10/27 04:24:01;;;;;;;;;;;;;;;15.50;64.90;99050.59;4195997;28;19925;-70
2023/10/27 04:26:03;;;;;;;;;;;;;;;15.51;65.06;99054.09;4213940;28;19924;-70
2023/10/27 04:28:05;;;;;;;;;;;;;;;15.49;65.02;99048.91;4213814;28;20281;-70
2023/10/27 04:30:07;;;;;;;;;;;;;;;15.49;65.12;99048.91;4213810;28;19930;-70
2023/10/27 04:32:09;;;;;;;;;;;;;;;15.48;65.11;99058.69;4213330;28;19963;-70
2023/10/27 04:34:11;;;;;;;;;;;;;;;15.49;64.75;99056.88;4213584;28;19924;-70
2023/10/27 04:36:14;;;;;;;;;;;;;;;15.48;65.00;99058.69;4213447;28;20031;-71
2023/10/27 04:38:16;;;;;;;;;;;;;;;15.48;65.19;99061.34;4213861;28;19969;-71
2023/10/27 04:40:18;;;;;;;;;;;;;;;15.48;65.05;99061.34;4213437;28;20042;-70
2023/10/27 04:42:19;;;;;;;;;;;;;;;15.48;65.09;99061.34;4213720;28;19928;-71
2023/10/27 04:44:23;;;;;;;;;;;;;;;15.48;65.04;99068.44;4213662;28;20278;-70
2023/10/27 04:46:25;;;;;;;;;;;;;;;15.47;65.12;99064.94;4213338;28;19924;-70
2023/10/27 04:48:27;;;;;;;;;;;;;;;15.47;65.07;99061.47;4195381;28;19961;-71
2023/10/27 04:50:29;;;;;;;;;;;;;;;15.47;64.89;99061.47;4213404;28;19928;-71
2023/10/27 04:52:30;;;;;;;;;;;;;;;15.46;64.91;99068.56;4213083;28;19924;-68
2023/10/27 04:54:34;;;;;;;;;;;;;;;15.48;64.80;99060.47;4213550;28;19928;-70
2023/10/27 04:56:36;;;;;;;;;;;;;;;15.47;65.10;99069.41;4213376;28;19947;-70
2023/10/27 04:58:39;;;;;;;;;;;;;;;15.46;64.76;99071.22;4213613;28;20389;-71
2023/10/27 05:00:41;;;;;;;;;;;;;;;15.46;64.99;99065.91;4213416;28;20034;-70
2023/10/27 05:02:43;;;;;;;;;;;;;;;15.46;64.99;99076.50;4213118;28;19943;-70
2023/10/27 05:04:44;;;;;;;;;;;;;;;15.47;64.69;99080.00;4213205;28;20371;-70
2023/10/27 05:06:46;;;;;;;;;;;;;;;15.46;65.01;99071.22;4213152;28;19924;-69
2023/10/27 05:08:50;;;;;;;;;;;;;;;15.45;65.04;99069.53;4213070;28;19966;-70
2023/10/27 05:10:52;;;;;;;;;;;;;;;15.45;65.08;99079.28;4213420;28;19986;-70
2023/10/27 05:12:55;;;;;;;;;;;;;;;15.45;65.07;99071.34;4213293;28;19924;-71
2023/10/27 05:14:56;;;;;;;;;;;;;;;15.44;64.95;99074.97;4213275;28;20019;-71
2023/10/27 05:16:58;;;;;;;;;;;;;;;15.44;65.01;99075.81;4212916;28;20313;-70
2023/10/27 05:19:00;;;;;;;;;;;;;;;15.44;64.93;99070.50;4213293;28;19924;-70
2023/10/27 05:21:01;;;;;;;;;;;;;;;15.43;65.27;99074.13;4213237;28;19956;-70
2023/10/27 05:23:04;;;;;;;;;;;;;;;15.43;65.16;99076.78;4213269;28;19924;-71
2023/10/27 05:25:06;;;;;;;;;;;;;;;15.44;65.01;99080.25;4213045;28;19931;-70
2023/10/27 05:27:13;;;;;;;;;;;;;;;15.43;64.73;99082.06;4213287;28;19935;-70
2023/10/27 05:29:19;;;;;;;;;;;;;;;15.43;65.17;99083.88;4213392;28;19960;-70
2023/10/27 05:31:22;;;;;;;;;;;;;;;15.42;64.93;99076.88;4212512;28;19970;-70
2023/10/27 05:33:23;;;;;;;;;;;;;;;15.43;64.96;99081.22;4213176;28;19944;-71
2023/10/27 05:35:25;;;;;;;;;;;;;;;15.42;64.95;99080.38;4213124;28;19924;-71
2023/10/27 05:37:26;;;;;;;;;;;;;;;15.42;65.09;99083.03;4212913;28;19928;-70
2023/10/27 05:39:28;;;;;;;;;;;;;;;15.42;65.08;99083.03;4213529;28;20420;-71
2023/10/27 05:41:30;;;;;;;;;;;;;;;15.42;64.77;99083.03;4216276;28;20292;-71
2023/10/27 05:43:32;;;;;;;;;;;;;;;15.42;64.55;99074.22;4216123;28;19924;-71
2023/10/27 05:45:34;;;;;;;;;;;;;;;15.42;64.79;99082.19;4215716;28;19930;-71
2023/10/27 05:47:35;;;;;;;;;;;;;;;15.40;64.99;99077.00;4216301;28;19978;-70
2023/10/27 05:49:37;;;;;;;;;;;;;;;15.41;64.81;99084.00;4216071;28;19970;-71
2023/10/27 05:51:43;;;;;;;;;;;;;;;15.40;65.04;99076.19;4216217;28;19924;-70
2023/10/27 05:53:45;;;;;;;;;;;;;;;15.40;64.81;99070.88;4216151;28;19924;-70
2023/10/27 05:55:46;;;;;;;;;;;;;;;15.39;64.98;99070.03;4216002;28;19982;-70
2023/10/27 05:57:48;;;;;;;;;;;;;;;15.40;64.94;99073.53;4216022;28;19924;-70
2023/10/27 05:59:49;;;;;;;;;;;;;;;15.40;65.09;99073.53;4215529;28;19928;-70
2023/10/27 06:01:53;;;;;;;;;;;;;;;15.40;64.69;99074.38;4216038;28;20034;-71
2023/10/27 06:04:11;;;;;;;;;;;;;;;15.40;64.74;99076.19;4216222;28;20328;-70
2023/10/27 06:06:14;;;;;;;;;;;;;;;15.39;64.91;99077.97;4197965;28;20334;-71
2023/10/27 06:08:16;;;;;;;;;;;;;;;15.40;64.83;99068.25;4216129;28;19924;-71
2023/10/27 06:10:18;;;;;;;;;;;;;;;15.39;64.85;99070.03;4215926;28;19924;-70
2023/10/27 06:12:19;;;;;;;;;;;;;;;15.40;64.77;99077.00;4216021;28;19928;-71
2023/10/27 06:14:21;;;;;;;;;;;;;;;15.39;64.63;99071.84;4215480;28;19928;-70
2023/10/27 06:16:23;;;;;;;;;;;;;;;15.39;64.70;99077.16;4215865;28;20011;-70
2023/10/27 06:18:24;;;;;;;;;;;;;;;15.38;64.83;99076.28;4215784;28;19924;-70
2023/10/27 06:20:26;;;;;;;;;;;;;;;15.38;64.71;99072.81;4215602;28;20018;-70
2023/10/27 06:22:28;;;;;;;;;;;;;;;15.37;64.76;99069.34;4215669;28;19924;-70
2023/10/27 06:24:29;;;;;;;;;;;;;;;15.37;64.51;99074.63;4197718;28;19928;-70
2023/10/27 06:26:31;;;;;;;;;;;;;;;15.37;64.84;99079.06;4215718;28;19931;-70
2023/10/27 06:28:34;;;;;;;;;;;;;;;15.37;64.75;99079.94;4215535;28;20351;-71
2023/10/27 06:30:36;;;;;;;;;;;;;;;15.37;64.91;99084.38;4215731;28;19993;-70
2023/10/27 06:32:38;;;;;;;;;;;;;;;15.37;64.44;99087.03;4215394;28;19924;-70
2023/10/27 06:34:40;;;;;;;;;;;;;;;15.37;64.65;99087.88;4215685;28;19994;-70
2023/10/27 06:36:41;;;;;;;;;;;;;;;15.37;64.72;99092.31;4215414;28;19970;-70
2023/10/27 06:38:43;;;;;;;;;;;;;;;15.36;64.74;99096.78;4215533;28;19924;-71
2023/10/27 06:40:44;;;;;;;;;;;;;;;15.37;64.55;99097.63;4215629;28;19924;-70
2023/10/27 06:42:46;;;;;;;;;;;;;;;15.35;64.85;99097.75;4215274;28;19924;-70
2023/10/27 06:44:51;;;;;;;;;;;;;;;15.36;64.88;99096.78;4215552;28;19960;-70
2023/10/27 06:46:56;;;;;;;;;;;;;;;15.36;64.89;99101.22;4215565;28;19924;-69
2023/10/27 06:48:57;;;;;;;;;;;;;;;15.36;64.87;99095.94;4215206;28;20388;-70
2023/10/27 06:51:00;;;;;;;;;;;;;;;15.35;64.94;99100.41;4214410;28;20439;-70
2023/10/27 06:53:02;;;;;;;;;;;;;;;15.34;64.86;99094.25;4214914;28;20415;-70
2023/10/27 06:55:04;;;;;;;;;;;;;;;15.35;64.86;99103.03;4215136;28;19997;-70
2023/10/27 06:57:07;;;;;;;;;;;;;;;15.34;64.76;99109.31;4214932;28;19924;-70
2023/10/27 06:59:09;;;;;;;;;;;;;;;15.35;64.78;99103.03;4214924;28;20306;-70
2023/10/27 07:01:11;;;;;;;;;;;;;;;15.36;64.38;99114.47;4215300;28;19924;-70
2023/10/27 07:03:12;;;;;;;;;;;;;;;15.36;64.49;99117.13;4215005;28;20002;-70
2023/10/27 07:05:31;;;;;;;;;;;;;;;15.36;64.73;99109.19;4215314;28;19936;-70
2023/10/27 07:07:33;;;;;;;;;;;;;;;15.36;64.39;99111.81;4214979;28;19966;-70
2023/10/27 07:09:35;;;;;;;;;;;;;;;15.36;64.64;99117.97;4215134;28;19928;-69
2023/10/27 07:11:38;;;;;;;;;;;;;;;15.36;64.66;99120.63;4214782;28;19928;-70
2023/10/27 07:13:39;;;;;;;;;;;;;;;15.36;64.33;99123.28;4215035;28;20026;-70
2023/10/27 07:15:41;;;;;;;;;;;;;;;15.36;64.40;99120.63;4214978;28;20006;-70
2023/10/27 07:17:43;;;;;;;;;;;;;;;15.36;64.38;99127.72;4214845;28;20337;-70
2023/10/27 07:19:44;;;;;;;;;;;;;;;15.36;64.63;99133.00;4214987;28;19924;-69
2023/10/27 07:21:46;;;;;;;;;;;;;;;15.36;64.75;99133.00;4214965;28;19928;-69
2023/10/27 07:23:48;;;;;;;;;;;;;;;15.36;64.43;99130.38;4215096;28;19997;-70
2023/10/27 07:25:49;;;;;;;;;;;;;;;15.36;64.52;99131.22;4214569;28;19947;-70
2023/10/27 07:27:51;;;;;;;;;;;;;;;15.36;64.31;99135.66;4214719;28;19931;-70
2023/10/27 07:29:53;;;;;;;;;;;;;;;15.37;64.71;99137.34;4214451;28;19935;-70
2023/10/27 07:31:55;;;;;;;;;;;;;;;15.37;64.36;99148.81;4214651;28;19989;-71
2023/10/27 07:33:57;;;;;;;;;;;;;;;15.37;64.62;99150.59;4214716;28;19924;-71
2023/10/27 07:35:58;;;;;;;;;;;;;;;15.36;64.59;99147.13;4214680;28;20392;-71
2023/10/27 07:38:00;;;;;;;;;;;;;;;15.38;64.59;99154.94;4214686;28;20270;-71
2023/10/27 07:40:03;;;;;;;;;;;;;;;15.37;64.39;99156.75;4214544;28;20395;-71
2023/10/27 07:42:07;;;;;;;;;;;;;;;15.38;64.49;99161.06;4214399;28;19927;-71
2023/10/27 07:44:08;;;;;;;;;;;;;;;15.37;64.44;99164.69;4214647;28;19931;-71
2023/10/27 07:46:10;;;;;;;;;;;;;;;15.38;64.41;99171.66;4214513;28;19947;-71
2023/10/27 07:48:12;;;;;;;;;;;;;;;15.38;64.54;99169.00;4207690;28;20385;-72
2023/10/27 07:50:14;;;;;;;;;;;;;;;15.38;64.23;99170.81;4179593;28;19925;-72
2023/10/27 07:52:15;;;;;;;;;;;;;;;15.37;64.40;99171.78;4197557;28;20350;-74
2023/10/27 07:54:17;;;;;;;;;;;;;;;15.37;65.23;99167.34;4179851;28;20017;-69
2023/10/27 07:56:19;;;;;;;;;;;;;;;15.38;64.75;99176.97;4208477;28;19924;-74
2023/10/27 07:58:21;;;;;;;;;;;;;;;15.39;64.72;99177.81;4214192;28;19928;-73
2023/10/27 08:00:22;;;;;;;;;;;;;;;15.40;64.66;99179.50;4196177;28;19925;-73
2023/10/27 08:02:24;;;;;;;;;;;;;;;15.40;64.39;99174.22;4214058;28;20429;-74
2023/10/27 08:04:26;;;;;;;;;;;;;;;15.40;64.28;99184.81;4214237;28;19924;-74
2023/10/27 08:06:28;;;;;;;;;;;;;;;15.41;64.52;99189.13;4212914;28;19924;-73
2023/10/27 08:08:29;;;;;;;;;;;;;;;15.42;64.32;99186.34;4213872;28;19958;-74
2023/10/27 08:10:32;;;;;;;;;;;;;;;15.41;64.30;99195.25;4213699;28;19947;-73
2023/10/27 08:12:34;;;;;;;;;;;;;;;15.41;64.34;99192.63;4214045;28;19962;-74
2023/10/27 08:14:36;;;;;;;;;;;;;;;15.42;64.67;99193.44;4214201;28;19935;-73
2023/10/27 08:16:38;;;;;;;;;;;;;;;15.42;64.53;99202.25;4213873;28;20385;-74
2023/10/27 08:18:40;;;;;;;;;;;;;;;15.42;64.60;99191.66;4213813;28;20355;-73
2023/10/27 08:20:41;;;;;;;;;;;;;;;15.42;64.49;99183.72;4213901;28;19940;-74
2023/10/27 08:22:43;;;;;;;;;;;;;;;15.42;64.58;99182.84;4213968;28;19947;-73
2023/10/27 08:24:45;;;;;;;;;;;;;;;15.43;64.42;99189.84;4213457;28;19924;-74
2023/10/27 08:26:47;;;;;;;;;;;;;;;15.42;64.50;99186.34;4213908;28;19946;-74
2023/10/27 08:28:48;;;;;;;;;;;;;;;15.42;64.37;99178.41;4213555;28;20007;-74
2023/10/27 08:30:50;;;;;;;;;;;;;;;15.42;64.51;99173.09;4213779;28;20023;-73
2023/10/27 08:32:52;;;;;;;;;;;;;;;15.42;64.29;99165.16;4213557;28;19924;-74
2023/10/27 08:34:55;;;;;;;;;;;;;;;15.42;64.15;99154.56;4213936;28;19927;-73
2023/10/27 08:36:57;;;;;;;;;;;;;;;15.42;64.23;99146.63;4213736;28;19931;-73
2023/10/27 08:38:59;;;;;;;;;;;;;;;15.43;64.32;99158.91;4213411;28;19964;-73
2023/10/27 08:41:01;;;;;;;;;;;;;;;15.29;64.39;99143.28;4213890;28;20335;-73
2023/10/27 08:43:03;;;;;;;;;;;;;;;15.44;64.40;99173.84;4213818;28;20015;-73
2023/10/27 08:45:05;;;;;;;;;;;;;;;15.44;64.34;99176.50;4213663;28;20011;-73
2023/10/27 08:47:07;;;;;;;;;;;;;;;15.44;64.10;99173.84;4213810;28;19924;-73
2023/10/27 08:49:09;;;;;;;;;;;;;;;15.44;64.17;99179.13;4213328;28;19924;-72
2023/10/27 08:51:13;;;;;;;;;;;;;;;15.45;64.28;99177.31;4213655;28;20457;-73
2023/10/27 08:53:14;;;;;;;;;;;;;;;15.45;64.21;99185.25;4213196;28;20016;-74
2023/10/27 08:55:16;;;;;;;;;;;;;;;15.45;64.26;99191.38;4213579;28;19930;-73
2023/10/27 08:57:18;;;;;;;;;;;;;;;15.45;64.20;99186.09;4213374;28;20022;-74
2023/10/27 08:59:19;;;;;;;;;;;;;;;15.47;64.27;99183.34;4213652;28;20014;-74
2023/10/27 09:01:21;;;;;;;;;;;;;;;15.46;64.18;99181.66;4213595;28;19973;-74
2023/10/27 09:03:22;;;;;;;;;;;;;;;15.45;63.80;99175.50;4213640;28;19979;-74
2023/10/27 09:05:24;;;;;;;;;;;;;;;15.45;64.21;99182.63;4213418;28;19993;-73
2023/10/27 09:07:26;;;;;;;;;;;;;;;15.45;63.86;99186.09;4213307;28;19975;-73
2023/10/27 09:09:28;;;;;;;;;;;;;;;15.46;64.29;99187.78;4195541;28;19932;-75
2023/10/27 09:11:37;;;;;;;;;;;;;;;15.47;64.12;99201.88;4213711;28;19966;-75
2023/10/27 09:13:39;;;;;;;;;;;;;;;15.45;64.26;99207.28;4213657;28;19924;-75
2023/10/27 09:15:43;;;;;;;;;;;;;;;15.45;64.09;99217.88;4215920;28;20031;-73
2023/10/27 09:17:51;;;;;;;;;;;;;;;15.45;64.21;99228.47;4216790;28;19954;-73
2023/10/27 09:20:06;;;;;;;;;;;;;;;15.44;63.92;99218.00;4217005;28;19924;-73
2023/10/27 09:22:14;;;;;;;;;;;;;;;15.44;64.14;99216.22;4216639;28;19924;-73
2023/10/27 09:24:21;;;;;;;;;;;;;;;15.45;64.15;99227.66;4199690;28;19935;-73
2023/10/27 09:26:28;;;;;;;;;;;;;;;15.43;63.84;99219.84;4216709;28;20011;-72
2023/10/27 09:28:29;;;;;;;;;;;;;;;15.44;64.21;99218.88;4216573;28;19928;-72
2023/10/27 09:30:32;;;;;;;;;;;;;;;15.43;64.01;99216.31;4216276;28;19955;-74
2023/10/27 09:32:34;;;;;;;;;;;;;;;15.42;64.33;99202.25;4216616;28;19924;-74
2023/10/27 09:34:37;;;;;;;;;;;;;;;15.42;64.13;99207.56;4216021;28;20027;-74
2023/10/27 09:36:54;;;;;;;;;;;;;;;15.43;64.08;99209.25;4216226;28;19978;-74
2023/10/27 09:38:56;;;;;;;;;;;;;;;15.43;64.35;99214.53;4217054;28;19973;-74
2023/10/27 09:41:02;;;;;;;;;;;;;;;15.44;64.21;99210.94;4216446;28;19924;-73
2023/10/27 09:43:07;;;;;;;;;;;;;;;15.46;64.24;99208.97;4216604;28;20380;-74
2023/10/27 09:45:11;;;;;;;;;;;;;;;15.45;63.92;99214.41;4216454;28;19937;-74
2023/10/27 09:47:18;;;;;;;;;;;;;;;15.45;64.23;99220.53;4216159;28;19943;-74
2023/10/27 09:49:24;;;;;;;;;;;;;;;15.45;64.40;99209.94;4215996;28;20034;-74
2023/10/27 09:51:26;;;;;;;;;;;;;;;15.45;64.22;99222.34;4216069;28;20312;-74
2023/10/27 09:53:28;;;;;;;;;;;;;;;15.45;64.34;99217.88;4216398;28;19969;-75
2023/10/27 09:55:33;;;;;;;;;;;;;;;15.46;64.22;99224.03;4216476;28;19966;-74
2023/10/27 09:57:35;;;;;;;;;;;;;;;15.46;64.38;99213.44;4216243;28;20331;-74
2023/10/27 09:59:36;;;;;;;;;;;;;;;15.47;64.08;99220.44;4216255;28;19931;-74
2023/10/27 10:01:39;;;;;;;;;;;;;;;15.48;64.22;99222.94;4216386;28;20385;-75
2023/10/27 10:03:41;;;;;;;;;;;;;;;15.50;64.25;99217.53;4216111;28;19928;-74
2023/10/27 10:06:12;;;;;;;;;;;;;;;15.50;64.07;99212.22;4215820;28;19967;-74
2023/10/27 10:08:18;;;;;;;;;;;;;;;15.51;63.98;99219.22;4214288;28;20345;-74
2023/10/27 10:10:26;;;;;;;;;;;;;;;15.51;64.07;99221.84;4216052;28;19938;-73
2023/10/27 10:12:48;;;;;;;;;;;;;;;15.52;63.81;99233.28;4215756;28;19924;-74
2023/10/27 10:14:50;;;;;;;;;;;;;;;15.51;64.02;99240.41;4215801;28;20313;-73
2023/10/27 10:16:51;;;;;;;;;;;;;;;15.51;63.99;99232.47;4216221;28;19951;-74
2023/10/27 10:18:55;;;;;;;;;;;;;;;15.52;64.09;99242.09;4215648;28;19924;-74
2023/10/27 10:20:57;;;;;;;;;;;;;;;15.53;63.81;99237.63;4215482;28;20015;-73
2023/10/27 10:22:59;;;;;;;;;;;;;;;15.52;64.14;99233.28;4216045;28;19924;-73
2023/10/27 10:25:18;;;;;;;;;;;;;;;15.51;64.11;99234.28;4215988;28;19924;-74
2023/10/27 10:27:23;;;;;;;;;;;;;;;15.51;63.88;99234.28;4215579;28;19993;-73
2023/10/27 10:29:28;;;;;;;;;;;;;;;15.48;63.98;99236.19;4215610;28;19928;-74
2023/10/27 10:31:30;;;;;;;;;;;;;;;15.52;64.15;99233.28;4215667;28;19928;-73
2023/10/27 10:33:32;;;;;;;;;;;;;;;15.50;64.12;99238.72;4215370;28;19935;-74
2023/10/27 10:35:37;;;;;;;;;;;;;;;15.50;63.89;99244.00;4212864;28;19931;-70
2023/10/27 10:37:39;;;;;;;;;;;;;;;15.49;64.18;99229.94;4215331;28;19924;-70